Time;durP1;ratioP1;P1;durP2;ratioP2;P2;SDS_P1;SDS_P2;PMS_P1;PMS_P2;Temp;Humidity;BMP_temperature;BMP_pressure;BME280_temperature;BME280_humidity;BME280_pressure;Samples;Min_cycle;Max_cycle;Signal;HPM_P1;HPM_P2
2022/05/12 00:01:03;;;;;;;9.20;5.65;;;17.10;99.90;;;;;;5028676;28;20018;-50
2022/05/12 00:03:29;;;;;;;10.38;5.40;;;17.20;99.90;;;;;;5029117;28;20528;-51
2022/05/12 00:05:55;;;;;;;7.43;5.18;;;17.00;99.90;;;;;;5029826;28;20028;-50
2022/05/12 00:08:20;;;;;;;8.18;4.80;;;17.00;99.90;;;;;;5029559;28;20558;-50
2022/05/12 00:10:46;;;;;;;8.85;5.28;;;17.10;99.90;;;;;;5029407;28;20096;-51
2022/05/12 00:13:12;;;;;;;14.10;5.03;;;17.20;99.90;;;;;;5029168;28;20052;-50
2022/05/12 00:15:38;;;;;;;13.70;5.80;;;17.10;99.90;;;;;;5029633;28;20030;-50
2022/05/12 00:18:08;;;;;;;11.60;5.55;;;17.20;99.90;;;;;;5026940;28;20044;-51
2022/05/12 00:20:36;;;;;;;17.33;5.18;;;17.20;99.90;;;;;;5029548;28;20038;-50
2022/05/12 00:23:23;;;;;;;8.35;4.95;;;17.10;99.90;;;;;;5019020;28;20469;-50
2022/05/12 00:25:50;;;;;;;8.80;4.63;;;17.10;99.90;;;;;;5014527;28;20024;-51
2022/05/12 00:28:19;;;;;;;10.65;4.90;;;17.10;99.90;;;;;;5029219;28;20025;-51
2022/05/12 00:30:47;;;;;;;10.38;5.50;;;17.10;99.90;;;;;;5029417;28;20025;-50
2022/05/12 00:33:15;;;;;;;13.35;5.43;;;17.10;99.90;;;;;;5028681;28;20025;-50
2022/05/12 00:35:43;;;;;;;9.98;4.70;;;17.20;99.90;;;;;;5028940;28;20530;-50
2022/05/12 00:38:10;;;;;;;10.25;4.88;;;17.20;99.90;;;;;;5029359;28;20033;-51
2022/05/12 00:40:37;;;;;;;10.55;5.75;;;17.30;99.90;;;;;;5029816;28;20060;-50
2022/05/12 00:43:06;;;;;;;11.40;4.85;;;17.20;99.90;;;;;;5011266;28;20057;-51
2022/05/12 00:45:35;;;;;;;9.57;5.32;;;17.20;99.90;;;;;;5028946;28;20022;-51
2022/05/12 00:48:03;;;;;;;10.93;5.68;;;17.20;99.90;;;;;;5028985;28;20099;-51
2022/05/12 00:50:33;;;;;;;12.15;5.57;;;17.30;99.90;;;;;;5029711;28;20032;-51
2022/05/12 00:53:01;;;;;;;9.75;4.85;;;17.20;99.90;;;;;;5028782;28;20091;-50
2022/05/12 00:55:40;;;;;;;8.30;5.03;;;17.20;99.90;;;;;;5029658;28;20105;-52
2022/05/12 00:58:10;;;;;;;10.32;5.38;;;17.20;99.90;;;;;;5028946;28;20061;-49
2022/05/12 01:00:37;;;;;;;11.93;5.72;;;17.20;99.90;;;;;;5031471;28;20037;-53
2022/05/12 01:03:07;;;;;;;7.88;4.45;;;17.10;99.90;;;;;;5028759;28;20036;-50
2022/05/12 01:05:33;;;;;;;11.80;5.20;;;17.10;99.90;;;;;;5026184;28;20037;-50
2022/05/12 01:07:59;;;;;;;9.43;4.38;;;17.00;99.90;;;;;;5028812;28;20029;-50
2022/05/12 01:10:26;;;;;;;7.25;4.38;;;17.00;99.90;;;;;;5032621;28;20068;-50
2022/05/12 01:12:52;;;;;;;9.80;4.75;;;16.90;99.90;;;;;;5029742;28;20044;-51
2022/05/12 01:15:21;;;;;;;11.68;5.50;;;16.90;99.90;;;;;;5033114;28;20496;-51
2022/05/12 01:17:48;;;;;;;12.80;5.10;;;16.90;99.90;;;;;;5033370;28;20421;-50
2022/05/12 01:20:14;;;;;;;8.82;5.45;;;16.80;99.90;;;;;;5033504;28;20025;-50
2022/05/12 01:23:03;;;;;;;10.98;5.30;;;16.90;99.90;;;;;;5028146;28;20032;-51
2022/05/12 01:25:30;;;;;;;10.13;5.43;;;16.90;99.90;;;;;;5013285;28;20029;-50
2022/05/12 01:27:56;;;;;;;12.48;5.00;;;16.90;99.90;;;;;;5013527;28;20145;-51
2022/05/12 01:30:23;;;;;;;7.22;4.43;;;16.90;99.90;;;;;;5013318;28;20116;-50
2022/05/12 01:32:50;;;;;;;10.32;5.28;;;16.80;99.90;;;;;;5012682;28;20040;-51
2022/05/12 01:35:24;;;;;;;8.95;4.68;;;16.80;99.90;;;;;;5013098;28;20038;-51
2022/05/12 01:37:50;;;;;;;11.55;5.35;;;16.80;99.90;;;;;;5013348;28;20042;-52
2022/05/12 01:40:19;;;;;;;10.55;5.93;;;16.80;99.90;;;;;;5012928;28;20154;-51
2022/05/12 01:42:45;;;;;;;10.15;5.95;;;16.80;99.90;;;;;;5019380;28;20041;-51
2022/05/12 01:45:12;;;;;;;13.07;5.38;;;16.80;99.90;;;;;;5033041;28;20037;-51
2022/05/12 01:47:38;;;;;;;9.88;5.00;;;16.70;99.90;;;;;;5032711;28;20105;-51
2022/05/12 01:50:06;;;;;;;14.32;6.13;;;16.80;99.90;;;;;;5032822;28;20036;-51
2022/05/12 01:52:32;;;;;;;12.38;5.80;;;16.70;99.90;;;;;;5032138;28;20412;-51
2022/05/12 01:54:57;;;;;;;12.05;5.32;;;16.70;99.90;;;;;;5032545;28;20470;-51
2022/05/12 01:57:23;;;;;;;12.20;4.85;;;16.70;99.90;;;;;;5032635;28;20049;-50
2022/05/12 01:59:50;;;;;;;10.98;5.22;;;16.80;99.90;;;;;;5038171;28;20387;-51
2022/05/12 02:02:16;;;;;;;11.80;5.22;;;16.70;99.90;;;;;;5051999;28;20025;-51
2022/05/12 02:04:41;;;;;;;8.82;4.68;;;16.70;99.90;;;;;;5052423;28;20111;-51
2022/05/12 02:07:08;;;;;;;13.00;5.05;;;16.70;99.90;;;;;;5052091;28;20021;-51
2022/05/12 02:09:34;;;;;;;10.25;4.25;;;16.70;99.90;;;;;;5052387;28;20472;-51
2022/05/12 02:12:00;;;;;;;12.32;4.80;;;16.60;99.90;;;;;;5038337;28;20152;-51
2022/05/12 02:14:25;;;;;;;10.25;4.45;;;16.60;99.90;;;;;;5031963;28;20065;-50
2022/05/12 02:16:51;;;;;;;10.88;5.28;;;16.60;99.90;;;;;;5031971;28;20021;-51
2022/05/12 02:19:17;;;;;;;7.85;4.93;;;16.60;99.90;;;;;;5041223;28;20107;-51
2022/05/12 02:21:43;;;;;;;6.78;4.43;;;16.60;99.90;;;;;;5032905;28;20120;-51
2022/05/12 02:24:08;;;;;;;8.90;4.70;;;16.40;99.90;;;;;;5035812;28;20543;-51
2022/05/12 02:26:35;;;;;;;11.52;4.68;;;16.30;99.90;;;;;;5031813;28;20018;-50
2022/05/12 02:29:01;;;;;;;10.25;4.85;;;16.20;99.90;;;;;;5032019;28;20032;-51
2022/05/12 02:31:26;;;;;;;10.30;5.25;;;16.20;99.90;;;;;;5040688;28;20024;-49
2022/05/12 02:33:52;;;;;;;15.70;6.38;;;16.30;99.90;;;;;;5051363;28;20037;-52
2022/05/12 02:36:18;;;;;;;11.60;5.38;;;16.20;99.90;;;;;;5051563;28;20475;-51
2022/05/12 02:38:44;;;;;;;11.55;6.47;;;16.20;99.90;;;;;;5052079;28;20032;-52
2022/05/12 02:41:09;;;;;;;17.83;6.13;;;16.20;99.90;;;;;;5051900;28;20025;-52
2022/05/12 02:43:35;;;;;;;13.13;5.38;;;16.20;99.90;;;;;;5051343;28;20592;-50
2022/05/12 02:46:06;;;;;;;10.73;5.18;;;16.20;99.90;;;;;;5051292;28;20361;-50
2022/05/12 02:48:35;;;;;;;12.25;5.35;;;16.30;99.90;;;;;;5051447;28;20123;-52
2022/05/12 02:51:01;;;;;;;10.63;6.03;;;16.40;99.90;;;;;;5051640;28;20430;-51
2022/05/12 02:53:28;;;;;;;14.77;6.85;;;16.30;99.90;;;;;;5050928;28;20124;-49
2022/05/12 02:55:55;;;;;;;13.85;6.78;;;16.40;99.90;;;;;;5051055;28;20468;-50
2022/05/12 02:58:21;;;;;;;17.27;7.18;;;16.40;99.90;;;;;;5051098;28;20033;-50
2022/05/12 03:00:47;;;;;;;13.43;7.13;;;16.40;99.90;;;;;;5051371;28;20025;-50
2022/05/12 03:03:13;;;;;;;16.60;7.45;;;16.30;99.90;;;;;;5050591;28;20357;-52
2022/05/12 03:05:39;;;;;;;14.30;6.88;;;16.30;99.90;;;;;;5051683;28;20021;-51
2022/05/12 03:08:06;;;;;;;20.27;8.45;;;16.30;99.90;;;;;;5050793;28;20025;-52
2022/05/12 03:10:33;;;;;;;18.03;7.70;;;16.30;99.90;;;;;;5051100;28;20071;-52
2022/05/12 03:12:59;;;;;;;20.35;8.20;;;16.40;99.90;;;;;;5050374;28;20741;-51
2022/05/12 03:15:24;;;;;;;20.70;8.95;;;16.40;99.90;;;;;;5051001;28;20104;-51
2022/05/12 03:17:51;;;;;;;18.60;8.18;;;16.40;99.90;;;;;;5050773;28;20032;-52
2022/05/12 03:20:19;;;;;;;15.57;8.27;;;16.30;99.90;;;;;;5051016;28;20114;-50
2022/05/12 03:22:45;;;;;;;18.38;8.48;;;16.40;99.90;;;;;;5046560;28;20595;-51
2022/05/12 03:25:13;;;;;;;19.77;8.65;;;16.40;99.90;;;;;;5031074;28;20096;-51
2022/05/12 03:27:40;;;;;;;22.08;9.13;;;16.50;99.90;;;;;;5031115;28;20025;-51
2022/05/12 03:30:10;;;;;;;21.13;10.05;;;16.50;99.90;;;;;;5030681;28;20041;-52
2022/05/12 03:32:36;;;;;;;25.80;9.82;;;16.60;99.90;;;;;;5030721;28;20120;-51
2022/05/12 03:35:02;;;;;;;20.60;10.13;;;16.70;99.90;;;;;;5030925;28;20033;-50
2022/05/12 03:37:28;;;;;;;20.73;11.67;;;16.80;99.90;;;;;;5030436;28;20025;-51
2022/05/12 03:39:54;;;;;;;29.65;11.88;;;16.80;99.90;;;;;;5030980;28;20029;-51
2022/05/12 03:42:19;;;;;;;27.48;13.20;;;16.90;99.90;;;;;;5030088;28;20028;-51
2022/05/12 03:44:53;;;;;;;21.25;11.23;;;16.90;99.90;;;;;;5030636;28;20025;-52
2022/05/12 03:47:19;;;;;;;21.98;9.77;;;16.90;99.90;;;;;;5030207;28;20026;-51
2022/05/12 03:49:47;;;;;;;27.35;10.23;;;16.80;99.90;;;;;;5030709;28;20777;-51
2022/05/12 03:52:13;;;;;;;24.92;10.10;;;16.90;99.90;;;;;;5029789;28;20057;-52
2022/05/12 03:54:40;;;;;;;21.38;9.68;;;16.90;99.90;;;;;;5030675;28;20053;-51
2022/05/12 03:57:06;;;;;;;24.60;8.93;;;17.00;99.90;;;;;;5030147;28;20099;-50
2022/05/12 03:59:33;;;;;;;18.23;8.33;;;17.10;99.90;;;;;;5030205;28;20051;-52
2022/05/12 04:01:59;;;;;;;19.95;8.77;;;17.20;99.90;;;;;;5012231;28;20468;-51
2022/05/12 04:04:25;;;;;;;17.50;8.50;;;17.20;99.90;;;;;;5030146;28;20032;-52
2022/05/12 04:06:50;;;;;;;16.17;7.63;;;17.40;99.90;;;;;;5030198;28;20030;-52
2022/05/12 04:09:16;;;;;;;15.65;7.05;;;17.40;99.90;;;;;;5049411;28;20115;-51
2022/05/12 04:11:42;;;;;;;13.63;7.10;;;17.60;99.90;;;;;;5050075;28;20364;-54
2022/05/12 04:14:08;;;;;;;12.82;6.90;;;17.90;99.90;;;;;;5049791;28;20143;-51
2022/05/12 04:16:35;;;;;;;17.60;7.35;;;18.00;99.90;;;;;;5049389;28;20108;-51
2022/05/12 04:19:03;;;;;;;17.42;7.05;;;18.10;99.90;;;;;;5049702;28;20431;-51
2022/05/12 04:21:31;;;;;;;13.38;7.32;;;18.00;99.90;;;;;;5049794;28;20024;-50
2022/05/12 04:23:56;;;;;;;16.25;7.75;;;18.00;99.90;;;;;;5037235;28;20031;-53
2022/05/12 04:26:22;;;;;;;13.18;7.13;;;17.90;99.90;;;;;;5029892;28;20108;-52
2022/05/12 04:28:49;;;;;;;13.43;7.10;;;18.00;99.90;;;;;;5029145;28;20022;-51
2022/05/12 04:31:14;;;;;;;19.05;6.95;;;18.00;99.90;;;;;;5030262;28;20026;-50
2022/05/12 04:36:24;;;;;;;15.10;7.10;;;18.00;99.90;;;;;;5030146;28;20040;-51
2022/05/12 04:38:50;;;;;;;21.33;8.05;;;18.10;99.90;;;;;;5029216;28;20025;-50
2022/05/12 04:41:16;;;;;;;18.73;6.60;;;18.10;99.90;;;;;;5029852;28;20029;-51
2022/05/12 04:43:42;;;;;;;13.60;7.05;;;18.30;99.90;;;;;;5028724;28;20056;-52
2022/05/12 04:46:08;;;;;;;15.60;6.68;;;18.40;99.90;;;;;;5029908;28;20037;-51
2022/05/12 04:48:34;;;;;;;18.58;6.35;;;18.40;99.90;;;;;;5028977;28;20055;-51
2022/05/12 04:51:00;;;;;;;11.98;6.30;;;18.60;99.90;;;;;;5029632;28;20064;-52
2022/05/12 04:53:27;;;;;;;13.57;6.60;;;18.60;99.90;;;;;;5044457;28;20487;-51
2022/05/12 04:55:53;;;;;;;11.23;6.80;;;18.70;99.90;;;;;;5011463;28;20033;-52
2022/05/12 04:58:18;;;;;;;14.38;6.88;;;18.70;99.90;;;;;;5029200;28;20038;-51
2022/05/12 05:00:44;;;;;;;16.17;7.38;;;18.70;99.90;;;;;;5029585;28;20029;-51
2022/05/12 05:03:11;;;;;;;14.10;7.38;;;18.80;99.90;;;;;;5029261;28;20026;-50
2022/05/12 05:05:37;;;;;;;11.85;6.50;;;18.90;99.90;;;;;;5029657;28;20033;-52
2022/05/12 05:08:04;;;;;;;12.23;6.68;;;19.00;99.90;;;;;;5038147;28;20025;-50
2022/05/12 05:10:32;;;;;;;15.80;6.50;;;19.00;99.90;;;;;;5048942;28;20021;-51
2022/05/12 05:12:58;;;;;;;15.38;6.88;;;19.00;99.90;;;;;;5048942;28;20040;-52
2022/05/12 05:15:25;;;;;;;18.98;7.55;;;19.10;99.90;;;;;;5049242;28;20025;-50
2022/05/12 05:17:52;;;;;;;16.60;8.15;;;19.10;99.90;;;;;;5049284;28;20033;-51
2022/05/12 05:20:24;;;;;;;13.40;6.28;;;19.20;99.90;;;;;;5048700;28;20617;-50
2022/05/12 05:22:50;;;;;;;12.90;5.88;;;19.20;99.90;;;;;;5027566;28;20030;-52
2022/05/12 05:25:16;;;;;;;14.05;6.53;;;19.20;99.90;;;;;;5029035;28;20052;-51
2022/05/12 05:27:43;;;;;;;14.82;6.18;;;19.40;99.90;;;;;;5029039;28;20083;-51
2022/05/12 05:30:12;;;;;;;17.00;6.13;;;19.50;99.90;;;;;;5028243;28;20041;-51
2022/05/12 05:32:38;;;;;;;11.73;5.53;;;19.60;99.90;;;;;;5021935;28;20043;-52
2022/05/12 12:17:34;;;;;;;12.10;3.47;;;28.50;58.20;;;;;;4716912;23;20186;-88
2022/05/12 12:20:11;;;;;;;10.07;3.58;;;27.90;58.80;;;;;;4954593;28;20039;-88
2022/05/12 12:22:52;;;;;;;9.57;3.60;;;28.20;62.10;;;;;;4962714;28;20193;-88
2022/05/12 12:25:44;;;;;;;11.30;2.70;;;28.10;59.70;;;;;;4966176;28;20069;-87
2022/05/12 12:28:28;;;;;;;11.43;3.05;;;27.60;60.10;;;;;;4949669;28;20031;-87
2022/05/12 12:30:54;;;;;;;14.75;3.78;;;27.70;62.00;;;;;;4963160;28;20035;-87
2022/05/12 12:33:31;;;;;;;9.05;3.78;;;27.80;62.10;;;;;;4951729;28;20503;-88
2022/05/12 12:36:07;;;;;;;11.77;3.85;;;28.10;62.30;;;;;;4945236;28;20121;-88
2022/05/12 12:38:48;;;;;;;17.13;3.58;;;28.20;61.30;;;;;;4945423;28;20128;-87
2022/05/12 12:41:29;;;;;;;12.73;2.80;;;27.90;61.40;;;;;;4952576;28;20093;-88
2022/05/12 12:44:23;;;;;;;13.13;2.88;;;27.90;62.10;;;;;;4971609;28;20033;-89
2022/05/12 12:47:14;;;;;;;12.07;3.22;;;28.10;60.60;;;;;;4973053;28;20031;-88
2022/05/12 12:49:58;;;;;;;8.18;2.97;;;28.20;61.30;;;;;;4975896;28;20118;-89
2022/05/12 12:52:27;;;;;;;11.88;3.53;;;28.20;60.50;;;;;;4994425;28;20027;-85
2022/05/12 12:57:40;;;;;;;16.17;2.30;;;28.30;60.20;;;;;;4981496;28;20089;-90
2022/05/12 13:00:15;;;;;;;14.02;2.50;;;28.40;59.40;;;;;;4977106;28;20031;-89
2022/05/12 13:03:21;;;;;;;16.17;2.90;;;28.30;59.80;;;;;;4980374;28;20039;-89
2022/05/12 13:05:48;;;;;;;9.65;2.67;;;28.10;59.80;;;;;;4963340;28;20035;-85
2022/05/12 13:08:31;;;;;;;14.82;2.97;;;28.50;59.50;;;;;;4984295;28;20035;-85
2022/05/12 13:11:00;;;;;;;11.95;2.40;;;28.70;59.10;;;;;;4978695;28;20483;-88
2022/05/12 13:13:28;;;;;;;17.40;2.67;;;28.90;59.70;;;;;;4963153;29;20046;-88
2022/05/12 13:16:03;;;;;;;10.90;2.53;;;29.00;58.90;;;;;;4945690;28;20037;-87
2022/05/12 13:18:33;;;;;;;11.60;2.42;;;28.60;59.40;;;;;;4946324;29;20024;-86
2022/05/12 13:21:01;;;;;;;10.48;2.03;;;28.30;58.90;;;;;;4961590;28;20031;-91
2022/05/12 13:23:30;;;;;;;10.48;2.17;;;28.50;58.90;;;;;;4963469;29;20614;-89
2022/05/12 13:25:59;;;;;;;17.00;2.35;;;28.70;59.30;;;;;;4965416;29;20019;-90
2022/05/12 13:28:29;;;;;;;15.85;2.53;;;28.70;58.30;;;;;;4977694;28;20023;-86
2022/05/12 13:31:16;;;;;;;12.65;2.08;;;28.50;58.10;;;;;;4967227;28;20027;-89
2022/05/12 13:34:08;;;;;;;12.13;2.45;;;28.30;58.60;;;;;;4999133;23;20263;-51
2022/05/12 13:36:39;;;;;;;9.27;2.40;;;28.30;59.00;;;;;;4915196;29;20044;-51
2022/05/12 13:39:05;;;;;;;6.70;1.83;;;28.60;59.00;;;;;;4916713;29;20020;-51
2022/05/12 13:41:38;;;;;;;8.32;1.50;;;28.60;58.00;;;;;;4927097;29;20111;-51
2022/05/12 13:44:18;;;;;;;5.68;2.05;;;28.70;57.90;;;;;;4935501;29;20106;-52
2022/05/12 13:46:54;;;;;;;11.75;1.80;;;28.70;57.20;;;;;;4935415;29;20479;-51
2022/05/12 13:49:32;;;;;;;9.85;2.00;;;28.60;56.10;;;;;;4935324;29;20587;-50
2022/05/12 13:52:15;;;;;;;12.48;1.85;;;28.50;57.40;;;;;;4934421;29;20030;-50
2022/05/12 13:55:02;;;;;;;7.93;1.98;;;28.50;56.40;;;;;;4911188;29;20040;-51
2022/05/12 13:57:51;;;;;;;48.67;3.47;;;28.40;56.10;;;;;;4915797;29;20536;-51
2022/05/12 14:00:42;;;;;;;6.63;1.63;;;28.40;57.70;;;;;;4899118;29;20172;-51
2022/05/12 14:03:30;;;;;;;12.20;2.47;;;28.60;56.60;;;;;;4915760;29;20024;-51
2022/05/12 14:06:28;;;;;;;11.93;2.83;;;28.70;55.60;;;;;;4916264;29;20036;-50
2022/05/12 14:09:13;;;;;;;9.07;1.47;;;28.60;54.90;;;;;;4907127;29;20044;-51
2022/05/12 14:11:39;;;;;;;4.78;1.63;;;28.60;54.40;;;;;;4915869;29;20079;-50
2022/05/12 14:19:39;;;;;;;9.18;1.60;;;29.00;54.40;;;;;;4915505;29;20507;-51
2022/05/12 14:22:10;;;;;;;10.35;2.30;;;28.60;55.10;;;;;;4915175;29;20038;-50
2022/05/12 14:24:41;;;;;;;6.18;1.60;;;28.60;54.60;;;;;;4915368;29;20028;-52
2022/05/12 14:27:09;;;;;;;11.52;1.80;;;28.90;53.70;;;;;;4926743;29;20078;-51
2022/05/12 14:29:35;;;;;;;14.35;1.80;;;28.80;53.90;;;;;;4934311;29;20103;-51
2022/05/12 14:32:02;;;;;;;7.13;1.55;;;28.70;54.00;;;;;;4934724;29;20122;-51
2022/05/12 14:34:28;;;;;;;10.93;1.40;;;28.70;54.10;;;;;;4934443;29;20519;-50
2022/05/12 14:37:00;;;;;;;3.73;1.60;;;28.90;53.20;;;;;;4931544;29;20062;-51
2022/05/12 14:39:27;;;;;;;6.10;1.52;;;28.80;54.50;;;;;;4914295;29;20052;-52
2022/05/12 14:41:53;;;;;;;;;;;28.50;55.10;;;;;;4918995;29;20032;-51
2022/05/12 14:44:19;;;;;;;6.65;1.40;;;28.80;52.70;;;;;;4914333;29;20315;-50
2022/05/12 14:46:48;;;;;;;11.73;2.95;;;28.60;53.10;;;;;;4897805;29;20551;-50
2022/05/12 14:49:31;;;;;;;8.38;1.60;;;28.70;52.60;;;;;;4913759;29;20392;-51
2022/05/12 14:51:59;;;;;;;11.75;1.80;;;28.80;52.70;;;;;;4912926;29;20031;-50
2022/05/12 14:54:25;;;;;;;9.57;1.27;;;29.00;52.70;;;;;;4911246;29;20047;-53
2022/05/12 14:56:51;;;;;;;17.50;2.03;;;28.70;52.40;;;;;;4913750;29;20516;-51
2022/05/12 14:59:16;;;;;;;9.63;2.00;;;28.80;52.10;;;;;;4913566;29;20131;-51
2022/05/12 15:01:42;;;;;;;9.68;1.40;;;28.70;51.90;;;;;;4913671;29;20039;-50
2022/05/12 15:04:08;;;;;;;6.15;1.20;;;28.60;52.30;;;;;;4913988;29;20056;-51
2022/05/12 15:06:34;;;;;;;12.52;1.58;;;28.30;52.90;;;;;;4914009;29;20112;-51
2022/05/12 15:09:01;;;;;;;6.95;1.50;;;28.20;52.70;;;;;;4913906;29;20480;-51
2022/05/12 15:11:26;;;;;;;19.03;2.23;;;28.30;52.60;;;;;;4914124;29;20420;-51
2022/05/12 15:13:55;;;;;;;10.93;1.13;;;28.30;51.90;;;;;;4914089;29;20072;-51
2022/05/12 15:16:21;;;;;;;6.35;1.60;;;28.50;52.00;;;;;;4913850;29;20039;-51
2022/05/12 15:18:48;;;;;;;11.75;1.65;;;28.60;52.40;;;;;;4913689;29;20074;-51
2022/05/12 15:21:14;;;;;;;9.38;1.70;;;28.60;51.80;;;;;;4914619;29;20032;-51
2022/05/12 15:23:41;;;;;;;7.07;2.08;;;28.60;52.30;;;;;;4914587;29;20050;-51
2022/05/12 15:26:13;;;;;;;9.23;1.45;;;28.50;51.80;;;;;;4914343;29;20099;-51
2022/05/12 15:28:39;;;;;;;8.57;1.20;;;28.50;51.70;;;;;;4913587;29;20115;-51
2022/05/12 15:31:06;;;;;;;7.32;1.42;;;28.20;50.90;;;;;;4914516;29;20107;-52
2022/05/12 15:33:32;;;;;;;6.65;1.50;;;27.90;51.30;;;;;;4896683;29;20031;-52
2022/05/12 15:35:59;;;;;;;10.40;1.20;;;27.80;51.80;;;;;;4914345;29;20087;-52
2022/05/12 15:38:26;;;;;;;9.00;1.77;;;27.70;52.00;;;;;;4913896;29;20060;-53
2022/05/12 15:40:51;;;;;;;;;;;27.40;51.50;;;;;;4916998;29;20079;-52
2022/05/12 15:43:19;;;;;;;10.32;1.65;;;27.40;52.50;;;;;;4913196;29;19923;-51
2022/05/12 15:45:46;;;;;;;6.05;1.35;;;27.20;52.80;;;;;;4913520;29;20099;-52
2022/05/12 15:48:17;;;;;;;9.15;1.15;;;27.00;52.10;;;;;;4914291;29;20466;-52
2022/05/12 15:50:46;;;;;;;6.70;1.00;;;26.90;52.10;;;;;;4913614;29;20481;-52
2022/05/12 15:53:15;;;;;;;12.75;1.20;;;26.80;53.50;;;;;;4913583;29;20131;-51
2022/05/12 15:55:43;;;;;;;4.15;1.20;;;26.50;52.70;;;;;;4914096;29;20131;-52
2022/05/12 15:58:09;;;;;;;15.60;3.15;;;26.40;53.10;;;;;;4896888;29;20483;-52
2022/05/12 16:00:38;;;;;;;14.60;2.23;;;26.10;52.40;;;;;;4913039;29;20021;-51
2022/05/12 16:03:04;;;;;;;6.85;0.95;;;25.80;53.00;;;;;;4913799;29;20028;-51
2022/05/12 16:05:30;;;;;;;8.10;1.02;;;25.60;52.50;;;;;;4914145;29;20028;-51
2022/05/12 16:07:56;;;;;;;5.70;1.20;;;25.50;53.10;;;;;;4914351;29;20043;-51
2022/05/12 16:10:22;;;;;;;7.85;1.50;;;25.50;52.60;;;;;;4913696;29;20142;-51
2022/05/12 16:12:57;;;;;;;7.35;1.00;;;25.50;53.40;;;;;;4912997;29;20028;-51
2022/05/12 16:15:27;;;;;;;8.55;1.33;;;25.60;52.20;;;;;;4912899;29;20036;-52
2022/05/12 16:17:54;;;;;;;10.90;1.25;;;25.70;52.60;;;;;;4913694;29;20043;-51
2022/05/12 16:20:22;;;;;;;11.50;1.45;;;26.10;51.40;;;;;;4913485;29;20032;-50
2022/05/12 16:22:53;;;;;;;11.10;1.20;;;26.80;49.30;;;;;;4913589;29;20040;-51
2022/05/12 16:25:23;;;;;;;12.80;1.90;;;27.20;49.10;;;;;;4913841;29;20032;-51
2022/05/12 16:27:56;;;;;;;13.52;1.58;;;26.90;48.90;;;;;;4913798;29;20031;-51
2022/05/12 16:30:23;;;;;;;6.70;1.00;;;26.10;49.90;;;;;;4913521;29;20615;-51
2022/05/12 16:32:51;;;;;;;6.55;1.33;;;25.70;49.90;;;;;;4913429;29;20617;-51
2022/05/12 16:35:18;;;;;;;10.85;1.80;;;25.80;49.70;;;;;;4913794;29;20060;-51
2022/05/12 16:37:44;;;;;;;9.55;1.00;;;25.70;50.00;;;;;;4913580;29;20354;-50
2022/05/12 16:40:10;;;;;;;7.05;1.00;;;25.70;49.60;;;;;;4912707;29;20483;-51
2022/05/12 16:42:37;;;;;;;7.30;1.23;;;25.50;49.80;;;;;;4928779;29;20027;-51
2022/05/12 16:45:03;;;;;;;5.70;1.10;;;25.30;49.60;;;;;;4930988;29;20099;-52
2022/05/12 16:47:29;;;;;;;7.73;1.63;;;25.10;50.30;;;;;;4912843;29;20107;-51
2022/05/12 16:49:54;;;;;;;9.13;1.35;;;25.10;50.20;;;;;;4912880;29;20115;-51
2022/05/12 16:52:21;;;;;;;11.93;1.08;;;25.00;52.20;;;;;;4913330;29;20032;-51
2022/05/12 16:54:46;;;;;;;9.98;1.58;;;24.90;51.50;;;;;;4912569;29;20040;-51
2022/05/12 16:57:14;;;;;;;7.07;1.42;;;24.80;52.10;;;;;;4913256;29;20043;-51
2022/05/12 16:59:43;;;;;;;3.95;1.23;;;24.70;51.50;;;;;;4913356;29;20028;-51
2022/05/12 17:02:12;;;;;;;6.20;1.08;;;24.60;51.70;;;;;;4913186;29;20036;-52
2022/05/12 17:04:37;;;;;;;2.90;1.02;;;24.60;51.40;;;;;;4913501;29;20095;-52
2022/05/12 17:07:03;;;;;;;10.40;1.23;;;24.40;52.30;;;;;;4914673;29;20118;-51
2022/05/12 17:09:31;;;;;;;5.75;1.00;;;24.30;51.50;;;;;;4932232;29;20493;-51
2022/05/12 17:11:58;;;;;;;9.13;2.53;;;24.00;51.40;;;;;;4922546;29;20048;-51
2022/05/12 17:14:27;;;;;;;10.30;2.42;;;23.90;52.70;;;;;;4906845;29;20146;-51
2022/05/12 17:16:53;;;;;;;7.32;1.30;;;23.70;51.20;;;;;;4912578;29;20029;-51
2022/05/12 17:19:19;;;;;;;13.57;1.58;;;23.70;51.50;;;;;;4913048;29;20040;-52
2022/05/12 17:21:45;;;;;;;10.37;2.30;;;23.50;52.10;;;;;;4912160;29;20366;-52
2022/05/12 17:24:10;;;;;;;6.07;2.00;;;23.50;51.40;;;;;;4913393;29;20040;-51
2022/05/12 17:26:36;;;;;;;11.18;2.97;;;23.40;51.90;;;;;;4912995;29;20480;-51
2022/05/12 17:29:03;;;;;;;11.02;2.10;;;23.30;52.30;;;;;;4912796;29;20461;-51
2022/05/12 17:31:29;;;;;;;6.13;2.13;;;23.30;52.60;;;;;;4912548;29;20059;-50
2022/05/12 17:33:54;;;;;;;9.02;2.45;;;23.30;52.80;;;;;;4912474;29;20091;-50
2022/05/12 17:36:21;;;;;;;10.02;1.98;;;23.10;52.80;;;;;;4913204;29;20036;-52
2022/05/12 17:38:47;;;;;;;11.50;2.63;;;23.10;53.50;;;;;;4912558;29;20032;-51
2022/05/12 17:41:14;;;;;;;12.02;1.85;;;23.00;53.00;;;;;;4913743;29;20032;-51
2022/05/12 17:43:39;;;;;;;5.53;1.95;;;22.90;53.80;;;;;;4931871;29;20031;-50
2022/05/12 17:46:08;;;;;;;8.05;2.05;;;22.80;53.90;;;;;;4931908;29;20487;-50
2022/05/12 17:48:35;;;;;;;13.85;3.55;;;22.70;53.80;;;;;;4931472;29;20499;-50
2022/05/12 17:51:01;;;;;;;73.63;51.42;;;22.80;54.30;;;;;;4932961;29;20573;-51
2022/05/12 17:53:27;;;;;;;246.07;195.30;;;22.70;54.10;;;;;;4935321;29;20514;-50
2022/05/12 17:55:53;;;;;;;13.52;4.07;;;22.50;53.70;;;;;;4935082;29;20028;-50
2022/05/12 17:58:22;;;;;;;11.88;2.83;;;22.50;54.50;;;;;;4912789;29;20432;-50
2022/05/12 18:00:51;;;;;;;11.50;3.55;;;22.40;54.10;;;;;;4915140;29;20391;-50
2022/05/12 18:03:17;;;;;;;4.00;1.90;;;22.30;54.50;;;;;;4914838;29;20028;-50
2022/05/12 18:05:44;;;;;;;18.87;2.57;;;22.20;54.60;;;;;;4915024;29;20040;-49
2022/05/12 18:08:11;;;;;;;26.33;8.60;;;22.00;53.70;;;;;;4915057;29;20335;-50
2022/05/12 18:10:41;;;;;;;6.85;3.47;;;22.00;53.20;;;;;;4915174;29;20039;-50
2022/05/12 18:13:08;;;;;;;17.55;3.08;;;21.90;53.80;;;;;;4914154;29;20036;-50
2022/05/12 18:15:36;;;;;;;6.22;1.60;;;21.80;53.70;;;;;;4914877;29;20484;-50
2022/05/12 18:18:02;;;;;;;5.95;1.65;;;21.70;54.00;;;;;;4914335;29;20055;-50
2022/05/12 18:20:28;;;;;;;5.05;1.10;;;21.50;53.60;;;;;;4912280;29;20468;-50
2022/05/12 18:22:54;;;;;;;4.78;1.23;;;21.40;53.50;;;;;;4914194;29;20020;-50
2022/05/12 18:25:21;;;;;;;10.45;1.60;;;21.40;53.60;;;;;;4897788;29;20480;-50
2022/05/12 18:27:47;;;;;;;5.60;1.60;;;21.30;53.70;;;;;;4913988;29;20040;-50
2022/05/12 18:30:15;;;;;;;12.27;1.80;;;21.10;53.90;;;;;;4914466;29;20086;-50
2022/05/12 18:32:41;;;;;;;7.95;1.35;;;21.10;54.40;;;;;;4896321;29;20043;-49
2022/05/12 18:35:07;;;;;;;6.00;1.55;;;21.00;54.30;;;;;;4914801;29;20047;-50
2022/05/12 18:37:37;;;;;;;8.02;0.98;;;20.90;54.50;;;;;;4915523;29;20036;-50
2022/05/12 18:40:08;;;;;;;11.85;2.67;;;20.80;55.50;;;;;;4912170;29;20040;-49
2022/05/12 18:42:35;;;;;;;11.30;3.88;;;20.60;57.30;;;;;;4913864;29;20106;-50
2022/05/12 18:45:01;;;;;;;9.38;3.70;;;20.30;57.50;;;;;;4911795;29;20808;-50
2022/05/12 18:47:27;;;;;;;12.67;3.07;;;20.10;58.00;;;;;;4903052;29;20046;-49
2022/05/12 18:49:53;;;;;;;17.88;3.53;;;20.00;58.60;;;;;;4934734;29;20287;-49
2022/05/12 18:52:19;;;;;;;11.38;3.00;;;20.00;59.00;;;;;;4933823;29;20530;-50
2022/05/12 18:54:45;;;;;;;16.98;3.03;;;19.80;59.10;;;;;;4934321;29;20047;-50
2022/05/12 18:57:16;;;;;;;11.70;3.10;;;19.80;59.50;;;;;;4934351;29;20031;-49
2022/05/12 18:59:42;;;;;;;5.78;2.10;;;19.60;60.60;;;;;;4917038;29;20392;-49
2022/05/12 19:02:10;;;;;;;14.43;1.75;;;19.50;61.90;;;;;;4913223;29;20503;-50
2022/05/12 19:04:36;;;;;;;12.38;2.03;;;19.30;61.60;;;;;;4913588;29;20496;-49
2022/05/12 19:07:02;;;;;;;2.47;1.30;;;19.30;62.30;;;;;;4913932;29;20050;-50
2022/05/12 19:09:28;;;;;;;8.52;2.15;;;19.10;62.40;;;;;;4915248;29;20517;-49
2022/05/12 19:11:54;;;;;;;7.40;2.53;;;19.10;63.40;;;;;;4914731;29;20511;-50
2022/05/12 19:14:19;;;;;;;12.07;5.55;;;18.90;61.80;;;;;;4914661;29;20036;-50
2022/05/12 19:16:45;;;;;;;15.43;5.55;;;19.10;62.00;;;;;;4913418;29;20249;-49
2022/05/12 19:19:11;;;;;;;9.20;3.80;;;19.10;61.60;;;;;;4913687;29;20025;-50
2022/05/12 19:21:37;;;;;;;13.35;3.13;;;19.00;62.80;;;;;;4914249;29;20039;-50
2022/05/12 19:24:03;;;;;;;13.65;2.58;;;19.00;62.80;;;;;;4913218;29;20028;-49
2022/05/12 19:26:29;;;;;;;5.15;2.10;;;19.00;63.80;;;;;;4913915;29;20056;-50
2022/05/12 19:28:55;;;;;;;9.85;1.98;;;18.90;62.40;;;;;;4913294;29;20507;-50
2022/05/12 19:31:20;;;;;;;7.82;2.55;;;18.90;63.20;;;;;;4913604;29;20118;-50
2022/05/12 19:33:46;;;;;;;10.32;2.10;;;18.60;64.20;;;;;;4912473;29;20107;-50
2022/05/12 19:36:12;;;;;;;9.05;1.90;;;18.70;65.20;;;;;;4913600;29;20025;-49
2022/05/12 19:38:38;;;;;;;9.38;2.25;;;18.70;65.70;;;;;;4896519;29;20453;-50
2022/05/12 19:41:04;;;;;;;8.50;2.30;;;18.60;65.30;;;;;;4913095;29;20051;-49